createdAt,value
2022-12-26T00:00:54.897Z,24.15
2022-12-26T00:03:22.300Z,22.25
2022-12-26T00:05:49.459Z,21.80
2022-12-26T00:08:16.647Z,20.35
2022-12-26T00:10:43.554Z,19.17
2022-12-26T00:13:38.169Z,20.40
2022-12-26T00:15:57.568Z,18.38
2022-12-26T00:18:24.494Z,17.77
2022-12-26T00:20:51.508Z,18.08
2022-12-26T00:23:18.404Z,17.30
2022-12-26T00:25:45.300Z,19.00
2022-12-26T00:28:12.471Z,18.30
2022-12-26T00:30:39.411Z,16.77
2022-12-26T00:33:06.508Z,18.05
2022-12-26T00:35:33.460Z,18.05
2022-12-26T00:38:00.728Z,18.85
2022-12-26T00:40:28.009Z,18.00
2022-12-26T00:42:54.893Z,19.27
2022-12-26T00:45:22.165Z,18.98
2022-12-26T00:47:49.064Z,20.15
2022-12-26T00:50:16.581Z,20.35
2022-12-26T00:52:43.684Z,20.95
2022-12-26T00:55:10.876Z,22.55
2022-12-26T00:57:37.878Z,22.38
2022-12-26T01:00:05.869Z,22.88
2022-12-26T01:02:39.051Z,21.75
2022-12-26T01:05:11.210Z,23.23
2022-12-26T01:08:20.225Z,21.45
2022-12-26T01:10:28.213Z,23.83
2022-12-26T01:12:55.169Z,23.43
2022-12-26T01:15:22.219Z,24.58
2022-12-26T01:17:49.116Z,24.63
2022-12-26T01:20:16.894Z,24.05
2022-12-26T01:22:43.881Z,24.63
2022-12-26T01:25:12.203Z,25.33
2022-12-26T01:27:39.653Z,24.95
2022-12-26T01:30:07.511Z,25.48
2022-12-26T01:32:34.414Z,23.80
2022-12-26T01:35:01.291Z,23.17
2022-12-26T01:37:28.339Z,23.58
2022-12-26T01:39:55.571Z,23.73
2022-12-26T01:42:25.305Z,22.48
2022-12-26T01:45:02.568Z,22.02
2022-12-26T01:48:08.310Z,23.35
2022-12-26T01:51:02.974Z,22.33
2022-12-26T01:53:34.514Z,22.20
2022-12-26T01:56:06.865Z,22.27
2022-12-26T01:58:39.734Z,23.25
2022-12-26T02:01:08.648Z,22.52
2022-12-26T02:04:00.053Z,23.48
2022-12-26T02:06:27.718Z,25.02
2022-12-26T02:08:55.026Z,25.45
2022-12-26T02:11:27.749Z,27.90
2022-12-26T02:13:55.016Z,26.98
2022-12-26T02:16:22.177Z,27.35
2022-12-26T02:18:49.114Z,28.33
2022-12-26T02:22:18.359Z,28.42
2022-12-26T02:25:07.706Z,32.08
2022-12-26T02:30:41.468Z,31.83
2022-12-26T02:33:47.705Z,34.72
2022-12-26T02:36:22.585Z,39.28
2022-12-26T02:38:52.625Z,39.20
2022-12-26T02:41:49.283Z,41.30
2022-12-26T02:44:39.848Z,41.35
2022-12-26T02:47:09.587Z,35.97
2022-12-26T02:50:02.629Z,38.08
2022-12-26T02:53:20.751Z,35.85
2022-12-26T02:56:11.703Z,31.27
2022-12-26T02:59:03.324Z,29.98
2022-12-26T03:01:58.339Z,28.95
2022-12-26T03:04:49.241Z,27.30
2022-12-26T03:07:40.821Z,27.63
2022-12-26T03:10:43.058Z,25.38
2022-12-26T03:13:17.105Z,25.98
2022-12-26T03:16:20.749Z,26.13
2022-12-26T03:18:57.813Z,26.58
2022-12-26T03:21:31.618Z,26.60
2022-12-26T03:23:58.636Z,25.98
2022-12-26T03:26:40.991Z,26.00
2022-12-26T03:29:36.511Z,26.58
2022-12-26T03:32:07.152Z,24.50
2022-12-26T03:34:37.616Z,25.88
2022-12-26T03:37:16.756Z,26.02
2022-12-26T03:40:02.277Z,25.70
2022-12-26T03:42:55.463Z,21.92
2022-12-26T03:46:24.346Z,21.58
2022-12-26T03:49:26.233Z,18.63
2022-12-26T03:52:28.596Z,20.38
2022-12-26T03:55:39.236Z,20.00
2022-12-26T03:58:51.029Z,18.75
2022-12-26T04:01:44.203Z,19.13
2022-12-26T04:04:33.787Z,18.48
2022-12-26T04:10:22.871Z,15.98
2022-12-26T04:13:10.569Z,16.98
2022-12-26T04:16:15.047Z,16.55
2022-12-26T04:19:26.367Z,14.85
2022-12-26T04:22:55.655Z,14.45
2022-12-26T04:28:40.631Z,13.00
2022-12-26T04:31:33.169Z,13.20
2022-12-26T04:34:23.247Z,13.75
2022-12-26T04:37:15.238Z,14.68
2022-12-26T04:40:06.885Z,15.10
2022-12-26T04:42:53.924Z,16.65
2022-12-26T04:45:22.774Z,16.73
2022-12-26T04:48:09.780Z,16.75
2022-12-26T04:50:36.934Z,15.45
2022-12-26T04:53:04.010Z,16.00
2022-12-26T04:55:33.394Z,16.58
2022-12-26T04:58:00.612Z,16.63
2022-12-26T05:00:28.888Z,16.73
2022-12-26T05:03:19.092Z,15.73
2022-12-26T05:06:08.466Z,16.48
2022-12-26T05:09:05.019Z,16.02
2022-12-26T05:11:34.349Z,15.68
2022-12-26T05:14:01.665Z,16.98
2022-12-26T05:16:48.355Z,15.55
2022-12-26T05:19:36.582Z,15.55
2022-12-26T05:22:23.868Z,16.88
2022-12-26T05:25:10.948Z,17.13
2022-12-26T05:28:01.046Z,18.98
2022-12-26T05:30:28.865Z,17.52
2022-12-26T05:33:14.936Z,20.55
2022-12-26T05:35:42.471Z,21.55
2022-12-26T05:38:11.055Z,19.35
2022-12-26T05:40:38.360Z,20.30
2022-12-26T05:43:05.249Z,21.98
2022-12-26T05:45:32.662Z,22.60
2022-12-26T05:48:00.728Z,23.52
2022-12-26T05:50:28.879Z,24.33
2022-12-26T05:52:59.793Z,24.77
2022-12-26T05:55:27.056Z,26.33
2022-12-26T05:57:54.271Z,24.15
2022-12-26T06:00:21.401Z,24.20
2022-12-26T06:02:48.885Z,24.90
2022-12-26T06:05:16.160Z,22.20
2022-12-26T06:07:45.031Z,24.85
2022-12-26T06:12:41.013Z,23.07
2022-12-26T06:15:08.489Z,22.23
2022-12-26T06:17:35.751Z,22.73
2022-12-26T06:20:02.689Z,23.73
2022-12-26T06:22:30.442Z,23.27
2022-12-26T06:24:57.699Z,24.45
2022-12-26T06:27:24.783Z,24.75
2022-12-26T06:29:51.793Z,24.83
2022-12-26T06:32:18.753Z,26.05
2022-12-26T06:34:45.671Z,22.77
2022-12-26T06:37:12.612Z,23.63
2022-12-26T06:39:39.604Z,23.73
2022-12-26T06:42:06.777Z,24.35
2022-12-26T06:44:33.754Z,23.80
2022-12-26T06:47:00.905Z,24.60
2022-12-26T06:49:32.731Z,24.92
2022-12-26T06:52:00.448Z,24.30
2022-12-26T06:54:27.464Z,24.70
2022-12-26T06:56:54.350Z,24.55
2022-12-26T06:59:21.605Z,24.75
2022-12-26T07:01:49.254Z,25.90
2022-12-26T07:04:16.527Z,26.55
2022-12-26T07:06:43.590Z,26.75
2022-12-26T07:09:17.266Z,25.42
2022-12-26T07:11:47.294Z,26.50
2022-12-26T07:14:14.850Z,25.10
2022-12-26T07:16:45.318Z,23.48
2022-12-26T07:19:13.957Z,27.17
2022-12-26T07:21:41.512Z,25.20
2022-12-26T07:24:15.684Z,25.60
2022-12-26T07:26:43.521Z,25.98
2022-12-26T07:29:12.025Z,26.45
2022-12-26T07:31:40.264Z,26.83
2022-12-26T07:34:07.815Z,27.23
2022-12-26T07:36:35.031Z,28.10
2022-12-26T07:39:02.040Z,30.10
2022-12-26T07:41:49.181Z,29.40
2022-12-26T07:44:16.420Z,27.77
2022-12-26T07:46:43.940Z,27.00
2022-12-26T07:49:12.390Z,27.23
2022-12-26T07:51:39.689Z,27.42
2022-12-26T07:54:11.083Z,26.85
2022-12-26T07:56:40.309Z,26.30
2022-12-26T07:59:08.390Z,27.23
2022-12-26T08:01:35.682Z,24.90
2022-12-26T08:04:02.860Z,25.52
2022-12-26T08:06:30.013Z,23.70
2022-12-26T08:08:58.447Z,23.48
2022-12-26T08:11:25.999Z,23.08
2022-12-26T08:13:53.179Z,24.00
2022-12-26T08:16:20.872Z,21.58
2022-12-26T08:18:47.937Z,22.60
2022-12-26T08:21:15.543Z,22.48
2022-12-26T08:23:42.579Z,21.25
2022-12-26T08:26:13.072Z,20.52
2022-12-26T08:28:42.169Z,21.83
2022-12-26T08:31:10.889Z,24.15
2022-12-26T08:33:37.986Z,21.77
2022-12-26T08:36:10.951Z,20.35
2022-12-26T08:38:39.503Z,20.58
2022-12-26T08:41:06.783Z,20.00
2022-12-26T08:44:03.527Z,19.67
2022-12-26T08:46:22.484Z,20.67
2022-12-26T08:48:51.088Z,21.42
2022-12-26T08:51:23.789Z,22.73
2022-12-26T08:53:52.464Z,40.47
2022-12-26T08:56:22.255Z,42.20
2022-12-26T08:58:49.720Z,40.10
2022-12-26T09:01:23.185Z,42.08
2022-12-26T09:03:57.999Z,38.75
2022-12-26T09:06:26.041Z,43.88
2022-12-26T09:08:53.527Z,43.05
2022-12-26T09:11:28.780Z,38.10
2022-12-26T09:13:58.510Z,39.72
2022-12-26T09:19:02.205Z,36.45
2022-12-26T09:24:02.786Z,36.15
2022-12-26T09:26:30.351Z,33.33
2022-12-26T09:28:58.016Z,33.33
2022-12-26T09:31:28.102Z,32.75
2022-12-26T09:33:55.850Z,29.02
2022-12-26T09:36:25.886Z,27.42
2022-12-26T09:38:55.173Z,26.17
2022-12-26T09:44:16.714Z,24.65
2022-12-26T09:46:56.043Z,25.65
2022-12-26T09:49:30.534Z,25.15
2022-12-26T09:52:01.829Z,25.65
2022-12-26T09:54:41.114Z,25.13
2022-12-26T09:57:16.581Z,26.15
2022-12-26T09:59:49.973Z,24.38
2022-12-26T10:02:24.008Z,26.00
2022-12-26T10:04:53.921Z,26.27
2022-12-26T10:07:54.831Z,27.35
2022-12-26T10:10:24.933Z,25.15
2022-12-26T10:13:11.649Z,24.42
2022-12-26T10:15:44.627Z,24.50
2022-12-26T10:18:20.726Z,24.65
2022-12-26T10:21:06.035Z,22.05
2022-12-26T10:23:41.041Z,21.52
2022-12-26T10:26:18.171Z,22.17
2022-12-26T10:29:08.452Z,23.48
2022-12-26T10:31:45.091Z,22.17
2022-12-26T10:34:20.626Z,19.45
2022-12-26T10:36:51.365Z,20.17
2022-12-26T10:39:22.241Z,16.55
2022-12-26T10:41:56.863Z,14.48
2022-12-26T10:44:27.844Z,11.38
2022-12-26T10:47:07.901Z,6.95
2022-12-26T10:49:36.163Z,12.10
2022-12-26T10:52:03.898Z,16.63
2022-12-26T10:54:31.576Z,18.42
2022-12-26T10:56:59.338Z,15.68
2022-12-26T11:00:03.101Z,13.98
2022-12-26T11:02:32.812Z,16.95
2022-12-26T11:05:16.000Z,16.17
2022-12-26T11:08:07.649Z,14.40
2022-12-26T11:10:35.037Z,10.02
2022-12-26T11:13:07.450Z,11.75
2022-12-26T11:15:49.920Z,12.55
2022-12-26T11:18:54.295Z,13.48
2022-12-26T11:21:25.846Z,12.75
2022-12-26T11:24:08.607Z,14.73
2022-12-26T11:26:37.197Z,13.00
2022-12-26T11:29:10.550Z,10.82
2022-12-26T11:31:39.626Z,12.25
2022-12-26T11:34:13.929Z,13.13
2022-12-26T11:36:47.581Z,12.80
2022-12-26T11:39:31.853Z,12.40
2022-12-26T11:41:59.143Z,12.93
2022-12-26T11:44:33.272Z,13.50
2022-12-26T11:47:01.881Z,11.38
2022-12-26T11:49:36.409Z,10.15
2022-12-26T11:52:41.907Z,10.30
2022-12-26T11:55:27.301Z,11.68
2022-12-26T11:58:06.709Z,11.73
2022-12-26T12:00:42.166Z,10.50
2022-12-26T12:03:26.553Z,12.38
2022-12-26T12:06:27.155Z,12.02
2022-12-26T12:09:15.847Z,12.82
2022-12-26T12:12:16.997Z,11.98
2022-12-26T12:15:22.931Z,12.82
2022-12-26T12:18:11.463Z,12.57
2022-12-26T12:20:56.964Z,12.23
2022-12-26T12:23:23.914Z,12.35
2022-12-26T12:26:23.107Z,11.10
2022-12-26T12:29:05.009Z,10.60
2022-12-26T12:31:41.095Z,11.27
2022-12-26T12:34:34.577Z,11.52
2022-12-26T12:37:25.352Z,10.45
2022-12-26T12:39:58.530Z,10.27
2022-12-26T12:42:45.506Z,10.43
2022-12-26T12:45:18.431Z,9.40
2022-12-26T12:48:14.579Z,9.63
2022-12-26T12:51:14.375Z,8.40
2022-12-26T12:56:28.239Z,9.45
2022-12-26T12:58:55.492Z,8.57
2022-12-26T13:01:28.309Z,8.90
2022-12-26T13:04:09.440Z,8.10
2022-12-26T13:06:43.891Z,8.85
2022-12-26T13:09:17.353Z,9.98
2022-12-26T13:11:56.661Z,9.65
2022-12-26T13:17:00.541Z,9.48
2022-12-26T13:19:41.897Z,8.73
2022-12-26T13:22:21.313Z,9.57
2022-12-26T13:24:56.922Z,9.65
2022-12-26T13:27:38.196Z,9.27
2022-12-26T13:30:17.003Z,8.68
2022-12-26T13:32:46.725Z,9.73
2022-12-26T13:35:53.667Z,8.60
2022-12-26T13:38:22.449Z,6.70
2022-12-26T13:41:22.819Z,6.43
2022-12-26T13:44:06.663Z,7.75
2022-12-26T13:46:36.608Z,7.82
2022-12-26T13:49:04.167Z,8.05
2022-12-26T13:51:42.960Z,6.72
2022-12-26T13:54:12.913Z,5.47
2022-12-26T13:56:45.675Z,5.25
2022-12-26T13:59:13.089Z,4.82
2022-12-26T14:02:01.411Z,5.50
2022-12-26T14:04:52.723Z,5.00
2022-12-26T14:07:28.638Z,4.57
2022-12-26T14:10:04.385Z,5.80
2022-12-26T14:12:43.485Z,5.15
2022-12-26T14:15:31.772Z,5.40
2022-12-26T14:18:29.928Z,5.53
2022-12-26T14:24:18.418Z,5.80
2022-12-26T14:26:49.173Z,5.38
2022-12-26T14:29:19.573Z,5.45
2022-12-26T14:32:32.117Z,5.50
2022-12-26T14:35:23.692Z,5.47
2022-12-26T14:38:28.267Z,5.22
2022-12-26T14:41:34.172Z,4.80
2022-12-26T14:44:15.849Z,6.05
2022-12-26T14:46:42.906Z,6.70
2022-12-26T14:49:37.311Z,5.88
2022-12-26T14:52:23.311Z,7.22
2022-12-26T14:54:54.215Z,11.25
2022-12-26T14:57:47.577Z,10.25
2022-12-26T15:00:24.190Z,8.27
2022-12-26T15:03:01.738Z,7.40
2022-12-26T15:05:38.470Z,7.30
2022-12-26T15:08:14.256Z,6.72
2022-12-26T15:10:50.421Z,8.27
2022-12-26T15:13:36.228Z,7.75
2022-12-26T15:16:18.687Z,7.97
2022-12-26T15:19:07.143Z,7.95
2022-12-26T15:21:43.006Z,7.75
2022-12-26T15:25:16.893Z,6.97
2022-12-26T15:28:15.252Z,7.05
2022-12-26T15:31:20.560Z,8.80
2022-12-26T15:34:03.028Z,9.75
2022-12-26T15:36:41.077Z,9.48
2022-12-26T15:39:21.997Z,9.80
2022-12-26T15:42:22.908Z,9.57
2022-12-26T15:45:08.645Z,9.25
2022-12-26T15:47:49.025Z,9.27
2022-12-26T15:50:21.920Z,9.55
2022-12-26T15:53:09.972Z,9.15
2022-12-26T15:55:46.425Z,9.25
2022-12-26T15:58:51.060Z,10.10
2022-12-26T16:01:39.234Z,9.52
2022-12-26T16:04:13.705Z,9.63
2022-12-26T16:06:56.285Z,9.43
2022-12-26T16:09:32.389Z,8.93
2022-12-26T16:12:00.841Z,9.90
2022-12-26T16:14:27.837Z,9.50
2022-12-26T16:16:55.502Z,10.68
2022-12-26T16:19:27.749Z,10.20
2022-12-26T16:22:21.427Z,10.13
2022-12-26T16:24:51.649Z,11.13
2022-12-26T16:27:22.536Z,10.45
2022-12-26T16:29:56.060Z,11.25
2022-12-26T16:32:47.204Z,11.68
2022-12-26T16:35:22.343Z,11.55
2022-12-26T16:37:50.843Z,12.73
2022-12-26T16:40:23.762Z,11.65
2022-12-26T16:43:31.247Z,11.95
2022-12-26T16:46:02.755Z,11.93
2022-12-26T16:48:32.496Z,17.83
2022-12-26T16:51:06.435Z,18.52
2022-12-26T16:53:36.376Z,19.98
2022-12-26T16:56:33.218Z,19.20
2022-12-26T16:59:17.096Z,19.70
2022-12-26T17:01:56.009Z,16.00
2022-12-26T17:04:25.788Z,14.77
2022-12-26T17:07:02.774Z,13.75
2022-12-26T17:09:41.629Z,13.60
2022-12-26T17:12:20.415Z,14.45
2022-12-26T17:14:49.907Z,15.40
2022-12-26T17:19:54.197Z,14.95
2022-12-26T17:22:27.902Z,15.77
2022-12-26T17:25:17.380Z,17.00
2022-12-26T17:27:45.628Z,17.02
2022-12-26T17:30:30.649Z,18.38
2022-12-26T17:33:11.005Z,17.42
2022-12-26T17:36:33.008Z,17.23
2022-12-26T17:38:28.138Z,18.48
2022-12-26T17:40:58.455Z,18.52
2022-12-26T17:43:31.449Z,18.25
2022-12-26T17:45:58.554Z,18.98
2022-12-26T17:48:25.687Z,18.17
2022-12-26T17:51:00.270Z,18.35
2022-12-26T17:53:33.285Z,19.50
2022-12-26T17:56:22.782Z,20.23
2022-12-26T17:58:50.533Z,19.33
2022-12-26T18:01:21.530Z,20.08
2022-12-26T18:03:50.086Z,20.58
2022-12-26T18:06:18.000Z,21.63
2022-12-26T18:08:45.242Z,19.52
2022-12-26T18:11:14.242Z,21.77
2022-12-26T18:13:42.185Z,21.55
2022-12-26T18:16:15.515Z,20.80
2022-12-26T18:18:47.391Z,22.05
2022-12-26T18:21:15.910Z,21.05
2022-12-26T18:23:43.556Z,54.95
2022-12-26T18:26:24.880Z,38.17
2022-12-26T18:28:52.233Z,22.42
2022-12-26T18:31:20.719Z,23.05
2022-12-26T18:33:47.809Z,22.83
2022-12-26T18:36:16.461Z,23.95
2022-12-26T18:38:44.326Z,21.88
2022-12-26T18:41:16.558Z,22.38
2022-12-26T18:43:43.747Z,21.25
2022-12-26T18:46:30.150Z,22.83
2022-12-26T18:48:57.863Z,21.67
2022-12-26T18:51:26.042Z,22.55
2022-12-26T18:53:53.277Z,27.38
2022-12-26T18:56:22.573Z,36.08
2022-12-26T18:58:57.121Z,32.72
2022-12-26T19:01:25.200Z,39.58
2022-12-26T19:03:53.955Z,33.95
2022-12-26T19:06:27.331Z,31.55
2022-12-26T19:08:54.868Z,25.70
2022-12-26T19:11:22.041Z,24.08
2022-12-26T19:13:49.111Z,24.90
2022-12-26T19:16:16.668Z,23.75
2022-12-26T19:18:43.592Z,23.63
2022-12-26T19:21:12.789Z,21.92
2022-12-26T19:23:40.336Z,21.90
2022-12-26T19:26:16.588Z,22.55
2022-12-26T19:28:43.844Z,23.90
2022-12-26T19:31:13.420Z,23.05
2022-12-26T19:33:40.920Z,23.63
2022-12-26T19:36:08.577Z,24.13
2022-12-26T19:38:35.794Z,30.33
2022-12-26T19:41:09.228Z,31.33
2022-12-26T19:43:37.207Z,24.90
2022-12-26T19:46:07.198Z,26.25
2022-12-26T19:48:35.465Z,24.92
2022-12-26T19:51:07.909Z,24.88
2022-12-26T19:53:36.387Z,25.48
2022-12-26T19:56:10.940Z,25.52
2022-12-26T19:58:38.157Z,26.98
2022-12-26T20:01:10.685Z,27.17
2022-12-26T20:03:37.904Z,28.80
2022-12-26T20:06:16.140Z,29.05
2022-12-26T20:08:44.564Z,29.75
2022-12-26T20:11:20.520Z,28.48
2022-12-26T20:13:48.848Z,30.63
2022-12-26T20:16:45.925Z,47.05
2022-12-26T20:19:05.880Z,32.28
2022-12-26T20:21:33.216Z,28.45
2022-12-26T20:24:01.875Z,29.25
2022-12-26T20:29:14.390Z,27.98
2022-12-26T20:31:42.733Z,28.58
2022-12-26T20:34:11.420Z,30.50
2022-12-26T20:36:38.977Z,28.88
2022-12-26T20:39:10.462Z,30.02
2022-12-26T20:41:37.791Z,31.10
2022-12-26T20:44:04.880Z,33.28
2022-12-26T20:46:33.426Z,31.17
2022-12-26T20:49:05.323Z,34.58
2022-12-26T20:51:37.962Z,37.20
2022-12-26T20:54:07.391Z,39.92
2022-12-26T20:56:36.206Z,37.22
2022-12-26T20:59:03.954Z,38.17
2022-12-26T21:01:31.441Z,38.15
2022-12-26T21:03:58.734Z,35.20
2022-12-26T21:06:31.923Z,37.50
2022-12-26T21:08:59.590Z,37.90
2022-12-26T21:11:29.353Z,40.17
2022-12-26T21:14:00.397Z,42.65
2022-12-26T21:16:38.043Z,43.47
2022-12-26T21:19:12.315Z,43.75
2022-12-26T21:21:44.402Z,47.40
2022-12-26T21:24:16.201Z,44.78
2022-12-26T21:26:44.742Z,49.22
2022-12-26T21:29:15.970Z,47.50
2022-12-26T21:31:43.246Z,46.67
2022-12-26T21:34:12.776Z,57.20
2022-12-26T21:36:40.770Z,49.30
2022-12-26T21:39:10.235Z,46.53
2022-12-26T21:41:37.862Z,47.33
2022-12-26T21:44:05.057Z,47.22
2022-12-26T21:46:32.271Z,46.50
2022-12-26T21:49:00.769Z,49.15
2022-12-26T21:51:28.918Z,47.42
2022-12-26T21:54:15.768Z,48.47
2022-12-26T21:56:42.908Z,46.72
2022-12-26T21:59:28.471Z,46.83
2022-12-26T22:01:55.622Z,47.55
2022-12-26T22:04:23.792Z,49.15
2022-12-26T22:06:51.656Z,48.47
2022-12-26T22:09:18.966Z,52.35
2022-12-26T22:12:05.334Z,47.03
2022-12-26T22:14:32.268Z,46.25
2022-12-26T22:16:59.488Z,46.10
2022-12-26T22:19:26.439Z,46.05
2022-12-26T22:21:54.650Z,46.10
2022-12-26T22:24:22.209Z,46.50
2022-12-26T22:26:49.577Z,46.20
2022-12-26T22:29:17.096Z,44.88
2022-12-26T22:32:03.980Z,44.53
2022-12-26T22:34:30.971Z,43.25
2022-12-26T22:36:58.248Z,45.63
2022-12-26T22:39:25.506Z,44.50
2022-12-26T22:41:55.203Z,42.83
2022-12-26T22:44:28.781Z,44.50
2022-12-26T22:46:57.840Z,46.58
2022-12-26T22:49:24.794Z,45.85
2022-12-26T22:51:51.749Z,44.47
2022-12-26T22:54:18.700Z,45.30
2022-12-26T22:56:45.740Z,44.45
2022-12-26T22:59:22.565Z,44.45
2022-12-26T23:01:59.956Z,46.70
2022-12-26T23:04:30.638Z,45.28
2022-12-26T23:06:58.862Z,44.42
2022-12-26T23:09:26.135Z,46.47
2022-12-26T23:12:12.277Z,45.83
2022-12-26T23:14:39.552Z,43.97
2022-12-26T23:17:12.091Z,47.00
2022-12-26T23:20:10.421Z,45.78
2022-12-26T23:22:37.679Z,48.23
2022-12-26T23:25:04.881Z,48.28
2022-12-26T23:27:50.339Z,47.78
2022-12-26T23:30:20.146Z,49.72
2022-12-26T23:32:51.987Z,46.30
2022-12-26T23:35:20.439Z,44.20
2022-12-26T23:37:47.350Z,46.08
2022-12-26T23:40:16.039Z,45.92
2022-12-26T23:42:43.307Z,46.70
2022-12-26T23:45:12.367Z,44.85
2022-12-26T23:47:41.114Z,42.42
2022-12-26T23:50:10.365Z,39.85
2022-12-26T23:52:37.693Z,39.10
2022-12-26T23:55:05.525Z,37.83
2022-12-26T23:57:32.660Z,37.40
2022-12-26T23:59:59.567Z,40.90
